ATL weather

Hartsfield Jackson Atlanta International Airport
Atlanta, Georgia, United States

Public forecast

Using degrees Fahrenheit for public forecast. Weather courtesy of forecast.io.

Current aviation weather report (METAR) for Hartsfield Jackson Atlanta International Airport

Retrieved 2019/10/23 00:52 UTC (48 minutes ago):

KATL 230052Z 28007KT 10SM SCT250 15/02 A3003 RMK AO2 SLP168 T01500022

Aviation forecast (TAF) for Hartsfield Jackson Atlanta International Airport

Retrieved 2019-10-23 00:27 UTC (1 hour ago):

TAF KATL 222323Z 2300/2406 29009KT P6SM FEW250 FM231200 33006KT P6SM SKC FM240000 02004KT P6SM SKC